sensor_id;sensor_type;location;lat;lon;timestamp;temperature;humidity
80290;SHT30;69592;44.804;-0.550;2023-07-09T00:01:16;23.33;69.83
80290;SHT30;69592;44.804;-0.550;2023-07-09T00:03:42;23.30;69.21
80290;SHT30;69592;44.804;-0.550;2023-07-09T00:06:09;23.36;69.61
80290;SHT30;69592;44.804;-0.550;2023-07-09T00:08:34;23.38;69.58
80290;SHT30;69592;44.804;-0.550;2023-07-09T00:11:00;23.34;69.76
80290;SHT30;69592;44.804;-0.550;2023-07-09T00:13:27;23.24;70.08
80290;SHT30;69592;44.804;-0.550;2023-07-09T00:15:56;23.33;69.77
80290;SHT30;69592;44.804;-0.550;2023-07-09T00:18:22;23.36;69.87
80290;SHT30;69592;44.804;-0.550;2023-07-09T00:20:48;23.20;70.24
80290;SHT30;69592;44.804;-0.550;2023-07-09T00:23:14;23.16;70.46
80290;SHT30;69592;44.804;-0.550;2023-07-09T00:25:40;23.12;70.76
80290;SHT30;69592;44.804;-0.550;2023-07-09T00:28:18;23.11;71.67
80290;SHT30;69592;44.804;-0.550;2023-07-09T00:30:46;23.05;72.08
80290;SHT30;69592;44.804;-0.550;2023-07-09T00:33:12;23.11;72.19
80290;SHT30;69592;44.804;-0.550;2023-07-09T00:35:45;23.09;72.71
80290;SHT30;69592;44.804;-0.550;2023-07-09T00:38:19;22.91;74.05
80290;SHT30;69592;44.804;-0.550;2023-07-09T00:41:03;22.82;74.79
80290;SHT30;69592;44.804;-0.550;2023-07-09T00:43:38;22.98;74.64
80290;SHT30;69592;44.804;-0.550;2023-07-09T00:46:17;23.05;74.62
80290;SHT30;69592;44.804;-0.550;2023-07-09T00:49:05;22.92;75.25
80290;SHT30;69592;44.804;-0.550;2023-07-09T00:51:33;22.88;75.65
80290;SHT30;69592;44.804;-0.550;2023-07-09T00:54:11;22.87;75.64
80290;SHT30;69592;44.804;-0.550;2023-07-09T00:56:43;22.98;75.65
80290;SHT30;69592;44.804;-0.550;2023-07-09T00:59:14;23.02;75.70
80290;SHT30;69592;44.804;-0.550;2023-07-09T01:01:40;22.95;75.46
80290;SHT30;69592;44.804;-0.550;2023-07-09T01:04:07;22.94;75.63
80290;SHT30;69592;44.804;-0.550;2023-07-09T01:06:41;22.92;75.83
80290;SHT30;69592;44.804;-0.550;2023-07-09T01:09:08;23.03;75.47
80290;SHT30;69592;44.804;-0.550;2023-07-09T01:11:34;23.12;75.21
80290;SHT30;69592;44.804;-0.550;2023-07-09T01:14:02;22.84;76.16
80290;SHT30;69592;44.804;-0.550;2023-07-09T01:16:35;23.03;75.74
80290;SHT30;69592;44.804;-0.550;2023-07-09T01:19:03;22.95;75.22
80290;SHT30;69592;44.804;-0.550;2023-07-09T01:21:30;22.91;75.58
80290;SHT30;69592;44.804;-0.550;2023-07-09T01:23:56;22.94;75.61
80290;SHT30;69592;44.804;-0.550;2023-07-09T01:26:25;22.76;76.10
80290;SHT30;69592;44.804;-0.550;2023-07-09T01:28:55;22.72;76.19
80290;SHT30;69592;44.804;-0.550;2023-07-09T01:31:22;22.88;75.86
80290;SHT30;69592;44.804;-0.550;2023-07-09T01:33:48;22.91;76.20
80290;SHT30;69592;44.804;-0.550;2023-07-09T01:36:20;22.95;76.11
80290;SHT30;69592;44.804;-0.550;2023-07-09T01:38:51;23.02;76.08
80290;SHT30;69592;44.804;-0.550;2023-07-09T01:41:17;23.05;76.19
80290;SHT30;69592;44.804;-0.550;2023-07-09T01:43:45;23.09;76.24
80290;SHT30;69592;44.804;-0.550;2023-07-09T01:46:11;22.92;75.80
80290;SHT30;69592;44.804;-0.550;2023-07-09T01:48:39;22.92;76.51
80290;SHT30;69592;44.804;-0.550;2023-07-09T01:51:10;22.75;76.68
80290;SHT30;69592;44.804;-0.550;2023-07-09T01:53:36;22.71;77.07
80290;SHT30;69592;44.804;-0.550;2023-07-09T01:56:03;22.92;76.51
80290;SHT30;69592;44.804;-0.550;2023-07-09T01:58:29;22.91;76.65
80290;SHT30;69592;44.804;-0.550;2023-07-09T02:00:56;22.92;76.77
80290;SHT30;69592;44.804;-0.550;2023-07-09T02:03:21;22.85;77.16
80290;SHT30;69592;44.804;-0.550;2023-07-09T02:05:52;22.79;78.54
80290;SHT30;69592;44.804;-0.550;2023-07-09T02:08:17;22.62;80.52
80290;SHT30;69592;44.804;-0.550;2023-07-09T02:10:44;22.52;80.31
80290;SHT30;69592;44.804;-0.550;2023-07-09T02:13:10;22.57;80.25
80290;SHT30;69592;44.804;-0.550;2023-07-09T02:15:35;22.58;79.48
80290;SHT30;69592;44.804;-0.550;2023-07-09T02:18:01;22.47;80.05
80290;SHT30;69592;44.804;-0.550;2023-07-09T02:20:27;22.45;80.13
80290;SHT30;69592;44.804;-0.550;2023-07-09T02:22:52;22.45;80.38
80290;SHT30;69592;44.804;-0.550;2023-07-09T02:25:17;22.48;80.62
80290;SHT30;69592;44.804;-0.550;2023-07-09T02:27:43;22.43;80.12
80290;SHT30;69592;44.804;-0.550;2023-07-09T02:30:09;22.30;80.47
80290;SHT30;69592;44.804;-0.550;2023-07-09T02:32:36;22.24;80.53
80290;SHT30;69592;44.804;-0.550;2023-07-09T02:35:02;22.31;80.58
80290;SHT30;69592;44.804;-0.550;2023-07-09T02:37:29;22.24;80.84
80290;SHT30;69592;44.804;-0.550;2023-07-09T02:39:55;22.13;80.61
80290;SHT30;69592;44.804;-0.550;2023-07-09T02:42:22;22.14;82.06
80290;SHT30;69592;44.804;-0.550;2023-07-09T02:44:47;22.25;81.51
80290;SHT30;69592;44.804;-0.550;2023-07-09T02:47:14;22.25;80.64
80290;SHT30;69592;44.804;-0.550;2023-07-09T02:49:39;22.34;80.64
80290;SHT30;69592;44.804;-0.550;2023-07-09T02:52:05;22.27;81.04
80290;SHT30;69592;44.804;-0.550;2023-07-09T02:54:31;22.30;80.92
80290;SHT30;69592;44.804;-0.550;2023-07-09T02:56:57;22.36;80.74
80290;SHT30;69592;44.804;-0.550;2023-07-09T02:59:22;22.18;80.59
80290;SHT30;69592;44.804;-0.550;2023-07-09T03:01:49;22.01;81.45
80290;SHT30;69592;44.804;-0.550;2023-07-09T03:04:14;21.99;81.69
80290;SHT30;69592;44.804;-0.550;2023-07-09T03:06:40;21.92;81.96
80290;SHT30;69592;44.804;-0.550;2023-07-09T03:09:06;21.85;82.03
80290;SHT30;69592;44.804;-0.550;2023-07-09T03:11:34;21.75;81.89
80290;SHT30;69592;44.804;-0.550;2023-07-09T03:14:00;21.72;81.88
80290;SHT30;69592;44.804;-0.550;2023-07-09T03:16:27;21.92;82.11
80290;SHT30;69592;44.804;-0.550;2023-07-09T03:18:53;21.90;82.07
80290;SHT30;69592;44.804;-0.550;2023-07-09T03:21:22;21.77;81.64
80290;SHT30;69592;44.804;-0.550;2023-07-09T03:23:47;21.67;82.34
80290;SHT30;69592;44.804;-0.550;2023-07-09T03:26:13;21.46;82.62
80290;SHT30;69592;44.804;-0.550;2023-07-09T03:28:38;21.62;82.79
80290;SHT30;69592;44.804;-0.550;2023-07-09T03:31:04;21.69;82.29
80290;SHT30;69592;44.804;-0.550;2023-07-09T03:33:29;21.56;82.64
80290;SHT30;69592;44.804;-0.550;2023-07-09T03:35:55;21.70;81.96
80290;SHT30;69592;44.804;-0.550;2023-07-09T03:38:21;21.72;81.15
80290;SHT30;69592;44.804;-0.550;2023-07-09T03:40:50;21.80;80.85
80290;SHT30;69592;44.804;-0.550;2023-07-09T03:43:16;21.82;80.50
80290;SHT30;69592;44.804;-0.550;2023-07-09T03:45:44;21.93;80.09
80290;SHT30;69592;44.804;-0.550;2023-07-09T03:48:10;21.94;79.82
80290;SHT30;69592;44.804;-0.550;2023-07-09T03:50:35;21.85;80.33
80290;SHT30;69592;44.804;-0.550;2023-07-09T03:53:00;21.80;80.26
80290;SHT30;69592;44.804;-0.550;2023-07-09T03:55:26;21.85;80.48
80290;SHT30;69592;44.804;-0.550;2023-07-09T03:57:53;21.92;80.34
80290;SHT30;69592;44.804;-0.550;2023-07-09T04:00:19;21.82;79.81
80290;SHT30;69592;44.804;-0.550;2023-07-09T04:02:44;21.76;79.83
80290;SHT30;69592;44.804;-0.550;2023-07-09T04:05:10;21.82;80.14
80290;SHT30;69592;44.804;-0.550;2023-07-09T04:07:36;21.76;80.36
80290;SHT30;69592;44.804;-0.550;2023-07-09T04:10:03;21.73;80.30
80290;SHT30;69592;44.804;-0.550;2023-07-09T04:12:29;21.72;80.42
80290;SHT30;69592;44.804;-0.550;2023-07-09T04:14:54;21.63;81.03
80290;SHT30;69592;44.804;-0.550;2023-07-09T04:17:20;21.65;81.19
80290;SHT30;69592;44.804;-0.550;2023-07-09T04:19:47;21.56;81.73
80290;SHT30;69592;44.804;-0.550;2023-07-09T04:22:13;21.43;82.21
80290;SHT30;69592;44.804;-0.550;2023-07-09T04:24:38;21.50;82.05
80290;SHT30;69592;44.804;-0.550;2023-07-09T04:27:04;21.47;82.21
80290;SHT30;69592;44.804;-0.550;2023-07-09T04:29:30;21.42;82.32
80290;SHT30;69592;44.804;-0.550;2023-07-09T04:31:56;21.42;82.42
80290;SHT30;69592;44.804;-0.550;2023-07-09T04:34:21;21.46;82.34
80290;SHT30;69592;44.804;-0.550;2023-07-09T04:36:48;21.47;82.63
80290;SHT30;69592;44.804;-0.550;2023-07-09T04:39:13;21.59;82.47
80290;SHT30;69592;44.804;-0.550;2023-07-09T04:41:39;21.63;82.40
80290;SHT30;69592;44.804;-0.550;2023-07-09T04:44:04;21.55;82.68
80290;SHT30;69592;44.804;-0.550;2023-07-09T04:46:29;21.57;82.86
80290;SHT30;69592;44.804;-0.550;2023-07-09T04:48:55;21.60;82.96
80290;SHT30;69592;44.804;-0.550;2023-07-09T04:51:21;21.60;82.97
80290;SHT30;69592;44.804;-0.550;2023-07-09T04:53:46;21.52;83.40
80290;SHT30;69592;44.804;-0.550;2023-07-09T04:56:11;21.62;83.27
80290;SHT30;69592;44.804;-0.550;2023-07-09T04:58:38;21.75;82.91
80290;SHT30;69592;44.804;-0.550;2023-07-09T05:01:03;21.90;81.96
80290;SHT30;69592;44.804;-0.550;2023-07-09T05:03:28;21.93;81.81
80290;SHT30;69592;44.804;-0.550;2023-07-09T05:05:54;21.82;81.73
80290;SHT30;69592;44.804;-0.550;2023-07-09T05:08:19;21.75;82.08
80290;SHT30;69592;44.804;-0.550;2023-07-09T05:10:49;21.67;82.36
80290;SHT30;69592;44.804;-0.550;2023-07-09T05:13:16;21.76;82.19
80290;SHT30;69592;44.804;-0.550;2023-07-09T05:15:44;21.82;82.02
80290;SHT30;69592;44.804;-0.550;2023-07-09T05:18:11;21.87;81.78
80290;SHT30;69592;44.804;-0.550;2023-07-09T05:20:38;21.87;81.94
80290;SHT30;69592;44.804;-0.550;2023-07-09T05:23:03;21.80;82.02
80290;SHT30;69592;44.804;-0.550;2023-07-09T05:25:29;21.82;82.13
80290;SHT30;69592;44.804;-0.550;2023-07-09T05:27:55;21.75;82.10
80290;SHT30;69592;44.804;-0.550;2023-07-09T05:30:20;21.89;81.61
80290;SHT30;69592;44.804;-0.550;2023-07-09T05:32:46;21.94;81.72
80290;SHT30;69592;44.804;-0.550;2023-07-09T05:35:12;21.73;82.09
80290;SHT30;69592;44.804;-0.550;2023-07-09T05:37:37;21.85;81.59
80290;SHT30;69592;44.804;-0.550;2023-07-09T05:40:04;22.01;81.14
80290;SHT30;69592;44.804;-0.550;2023-07-09T05:42:30;22.07;80.83
80290;SHT30;69592;44.804;-0.550;2023-07-09T05:44:56;22.14;80.74
80290;SHT30;69592;44.804;-0.550;2023-07-09T05:47:21;22.18;80.85
80290;SHT30;69592;44.804;-0.550;2023-07-09T05:49:47;22.25;80.24
80290;SHT30;69592;44.804;-0.550;2023-07-09T05:52:15;22.44;79.87
80290;SHT30;69592;44.804;-0.550;2023-07-09T05:54:41;22.51;79.75
80290;SHT30;69592;44.804;-0.550;2023-07-09T05:57:06;22.62;79.39
80290;SHT30;69592;44.804;-0.550;2023-07-09T05:59:32;22.68;79.43
80290;SHT30;69592;44.804;-0.550;2023-07-09T06:01:57;22.79;78.85
80290;SHT30;69592;44.804;-0.550;2023-07-09T06:04:25;22.87;78.50
80290;SHT30;69592;44.804;-0.550;2023-07-09T06:06:51;22.55;79.44
80290;SHT30;69592;44.804;-0.550;2023-07-09T06:09:17;22.73;79.28
80290;SHT30;69592;44.804;-0.550;2023-07-09T06:11:42;22.58;79.24
80290;SHT30;69592;44.804;-0.550;2023-07-09T06:14:09;22.76;78.81
80290;SHT30;69592;44.804;-0.550;2023-07-09T06:16:35;22.64;79.16
80290;SHT30;69592;44.804;-0.550;2023-07-09T06:19:00;23.02;77.82
80290;SHT30;69592;44.804;-0.550;2023-07-09T06:21:26;23.13;76.93
80290;SHT30;69592;44.804;-0.550;2023-07-09T06:23:51;22.87;77.49
80290;SHT30;69592;44.804;-0.550;2023-07-09T06:26:16;22.71;78.31
80290;SHT30;69592;44.804;-0.550;2023-07-09T06:28:42;22.87;78.27
80290;SHT30;69592;44.804;-0.550;2023-07-09T06:31:07;22.98;77.03
80290;SHT30;69592;44.804;-0.550;2023-07-09T06:33:33;23.05;77.06
80290;SHT30;69592;44.804;-0.550;2023-07-09T06:36:00;23.13;77.04
80290;SHT30;69592;44.804;-0.550;2023-07-09T06:38:27;23.11;76.71
80290;SHT30;69592;44.804;-0.550;2023-07-09T06:40:52;23.05;77.40
80290;SHT30;69592;44.804;-0.550;2023-07-09T06:43:19;23.42;76.59
80290;SHT30;69592;44.804;-0.550;2023-07-09T06:45:51;23.40;76.35
80290;SHT30;69592;44.804;-0.550;2023-07-09T06:48:17;23.49;75.84
80290;SHT30;69592;44.804;-0.550;2023-07-09T06:50:42;23.54;76.11
80290;SHT30;69592;44.804;-0.550;2023-07-09T06:53:08;23.57;75.48
80290;SHT30;69592;44.804;-0.550;2023-07-09T06:55:34;23.62;75.81
80290;SHT30;69592;44.804;-0.550;2023-07-09T06:58:00;23.49;75.45
80290;SHT30;69592;44.804;-0.550;2023-07-09T07:00:25;23.27;76.46
80290;SHT30;69592;44.804;-0.550;2023-07-09T07:02:51;23.40;76.11
80290;SHT30;69592;44.804;-0.550;2023-07-09T07:05:16;23.57;75.30
80290;SHT30;69592;44.804;-0.550;2023-07-09T07:07:43;23.49;76.04
80290;SHT30;69592;44.804;-0.550;2023-07-09T07:10:09;23.42;75.72
80290;SHT30;69592;44.804;-0.550;2023-07-09T07:12:42;23.34;76.11
80290;SHT30;69592;44.804;-0.550;2023-07-09T07:15:08;23.59;75.38
80290;SHT30;69592;44.804;-0.550;2023-07-09T07:17:33;23.52;74.84
80290;SHT30;69592;44.804;-0.550;2023-07-09T07:19:58;23.46;75.32
80290;SHT30;69592;44.804;-0.550;2023-07-09T07:22:24;23.29;75.06
80290;SHT30;69592;44.804;-0.550;2023-07-09T07:24:49;23.33;75.41
80290;SHT30;69592;44.804;-0.550;2023-07-09T07:27:14;23.56;74.82
80290;SHT30;69592;44.804;-0.550;2023-07-09T07:29:40;23.87;74.23
80290;SHT30;69592;44.804;-0.550;2023-07-09T07:32:06;23.93;74.06
80290;SHT30;69592;44.804;-0.550;2023-07-09T07:34:31;24.08;73.29
80290;SHT30;69592;44.804;-0.550;2023-07-09T07:36:57;24.18;73.44
80290;SHT30;69592;44.804;-0.550;2023-07-09T07:39:22;23.80;73.72
80290;SHT30;69592;44.804;-0.550;2023-07-09T07:41:48;23.84;72.88
80290;SHT30;69592;44.804;-0.550;2023-07-09T07:44:16;23.83;73.07
80290;SHT30;69592;44.804;-0.550;2023-07-09T07:46:41;23.84;72.87
80290;SHT30;69592;44.804;-0.550;2023-07-09T07:49:06;23.85;72.32
80290;SHT30;69592;44.804;-0.550;2023-07-09T07:51:32;24.00;72.65
80290;SHT30;69592;44.804;-0.550;2023-07-09T07:53:58;24.00;72.68
80290;SHT30;69592;44.804;-0.550;2023-07-09T07:56:23;24.27;72.09
80290;SHT30;69592;44.804;-0.550;2023-07-09T07:58:50;24.29;71.83
80290;SHT30;69592;44.804;-0.550;2023-07-09T08:01:16;24.41;71.67
80290;SHT30;69592;44.804;-0.550;2023-07-09T08:03:41;24.32;71.97
80290;SHT30;69592;44.804;-0.550;2023-07-09T08:06:06;24.39;71.76
80290;SHT30;69592;44.804;-0.550;2023-07-09T08:08:32;24.54;72.15
80290;SHT30;69592;44.804;-0.550;2023-07-09T08:11:04;24.78;71.09
80290;SHT30;69592;44.804;-0.550;2023-07-09T08:13:31;24.61;71.56
80290;SHT30;69592;44.804;-0.550;2023-07-09T08:15:58;24.17;72.51
80290;SHT30;69592;44.804;-0.550;2023-07-09T08:18:23;24.49;71.98
80290;SHT30;69592;44.804;-0.550;2023-07-09T08:20:48;24.61;71.33
80290;SHT30;69592;44.804;-0.550;2023-07-09T08:23:14;24.64;71.29
80290;SHT30;69592;44.804;-0.550;2023-07-09T08:25:39;24.64;71.33
80290;SHT30;69592;44.804;-0.550;2023-07-09T08:28:05;24.90;70.68
80290;SHT30;69592;44.804;-0.550;2023-07-09T08:30:30;25.02;70.75
80290;SHT30;69592;44.804;-0.550;2023-07-09T08:32:56;25.20;70.40
80290;SHT30;69592;44.804;-0.550;2023-07-09T08:35:22;25.34;69.90
80290;SHT30;69592;44.804;-0.550;2023-07-09T08:37:48;25.47;69.61
80290;SHT30;69592;44.804;-0.550;2023-07-09T08:40:15;25.49;69.29
80290;SHT30;69592;44.804;-0.550;2023-07-09T08:42:47;25.54;69.52
80290;SHT30;69592;44.804;-0.550;2023-07-09T08:45:18;25.50;69.18
80290;SHT30;69592;44.804;-0.550;2023-07-09T08:47:58;25.77;69.15
80290;SHT30;69592;44.804;-0.550;2023-07-09T08:50:35;25.81;68.92
80290;SHT30;69592;44.804;-0.550;2023-07-09T08:53:01;25.84;68.86
80290;SHT30;69592;44.804;-0.550;2023-07-09T08:55:29;25.94;68.52
80290;SHT30;69592;44.804;-0.550;2023-07-09T08:58:09;26.20;68.10
80290;SHT30;69592;44.804;-0.550;2023-07-09T09:03:30;26.33;68.27
80290;SHT30;69592;44.804;-0.550;2023-07-09T09:05:57;26.52;67.70
80290;SHT30;69592;44.804;-0.550;2023-07-09T09:11:48;26.51;67.09
80290;SHT30;69592;44.804;-0.550;2023-07-09T09:14:39;26.60;67.21
80290;SHT30;69592;44.804;-0.550;2023-07-09T09:17:12;26.83;66.85
80290;SHT30;69592;44.804;-0.550;2023-07-09T09:22:11;26.94;66.98
80290;SHT30;69592;44.804;-0.550;2023-07-09T09:27:23;27.04;66.39
80290;SHT30;69592;44.804;-0.550;2023-07-09T09:29:49;27.24;66.72
80290;SHT30;69592;44.804;-0.550;2023-07-09T09:32:34;27.44;66.58
80290;SHT30;69592;44.804;-0.550;2023-07-09T09:35:11;27.44;65.69
80290;SHT30;69592;44.804;-0.550;2023-07-09T09:37:37;27.48;65.75
80290;SHT30;69592;44.804;-0.550;2023-07-09T09:40:08;27.41;65.20
80290;SHT30;69592;44.804;-0.550;2023-07-09T09:42:34;27.41;65.16
80290;SHT30;69592;44.804;-0.550;2023-07-09T09:45:00;27.41;65.60
80290;SHT30;69592;44.804;-0.550;2023-07-09T09:47:26;27.55;64.97
80290;SHT30;69592;44.804;-0.550;2023-07-09T09:49:53;27.64;64.48
80290;SHT30;69592;44.804;-0.550;2023-07-09T09:52:19;27.57;64.36
80290;SHT30;69592;44.804;-0.550;2023-07-09T09:54:56;27.53;65.02
80290;SHT30;69592;44.804;-0.550;2023-07-09T09:57:27;27.65;64.71
80290;SHT30;69592;44.804;-0.550;2023-07-09T09:59:54;27.84;64.46
80290;SHT30;69592;44.804;-0.550;2023-07-09T10:02:24;27.98;64.27
80290;SHT30;69592;44.804;-0.550;2023-07-09T10:04:51;28.09;63.63
80290;SHT30;69592;44.804;-0.550;2023-07-09T10:09:55;28.18;63.73
80290;SHT30;69592;44.804;-0.550;2023-07-09T10:12:47;27.92;63.11
80290;SHT30;69592;44.804;-0.550;2023-07-09T10:18:06;28.18;62.68
80290;SHT30;69592;44.804;-0.550;2023-07-09T10:23:22;28.13;62.79
80290;SHT30;69592;44.804;-0.550;2023-07-09T10:31:14;28.70;62.16
80290;SHT30;69592;44.804;-0.550;2023-07-09T10:39:31;28.99;60.53
80290;SHT30;69592;44.804;-0.550;2023-07-09T10:42:00;28.97;62.34
80290;SHT30;69592;44.804;-0.550;2023-07-09T10:44:35;29.12;60.33
80290;SHT30;69592;44.804;-0.550;2023-07-09T10:47:17;28.93;59.52
80290;SHT30;69592;44.804;-0.550;2023-07-09T10:49:48;28.61;59.12
80290;SHT30;69592;44.804;-0.550;2023-07-09T10:52:27;29.07;60.66
80290;SHT30;69592;44.804;-0.550;2023-07-09T10:55:07;29.42;59.19
80290;SHT30;69592;44.804;-0.550;2023-07-09T10:58:00;29.37;57.93
80290;SHT30;69592;44.804;-0.550;2023-07-09T11:00:37;29.28;57.84
80290;SHT30;69592;44.804;-0.550;2023-07-09T11:03:17;29.74;57.86
80290;SHT30;69592;44.804;-0.550;2023-07-09T11:05:44;29.37;57.73
80290;SHT30;69592;44.804;-0.550;2023-07-09T11:08:15;29.44;57.72
80290;SHT30;69592;44.804;-0.550;2023-07-09T11:10:55;29.28;58.70
80290;SHT30;69592;44.804;-0.550;2023-07-09T11:13:41;29.35;57.30
80290;SHT30;69592;44.804;-0.550;2023-07-09T11:16:13;29.50;54.45
80290;SHT30;69592;44.804;-0.550;2023-07-09T11:18:39;29.39;56.41
80290;SHT30;69592;44.804;-0.550;2023-07-09T11:21:07;29.81;56.59
80290;SHT30;69592;44.804;-0.550;2023-07-09T11:23:46;29.93;56.09
80290;SHT30;69592;44.804;-0.550;2023-07-09T11:26:22;29.90;56.84
80290;SHT30;69592;44.804;-0.550;2023-07-09T11:28:55;30.05;56.34
80290;SHT30;69592;44.804;-0.550;2023-07-09T11:31:34;29.92;56.47
80290;SHT30;69592;44.804;-0.550;2023-07-09T11:36:32;29.93;55.97
80290;SHT30;69592;44.804;-0.550;2023-07-09T11:38:58;30.09;55.99
80290;SHT30;69592;44.804;-0.550;2023-07-09T11:43:52;30.47;55.52
80290;SHT30;69592;44.804;-0.550;2023-07-09T11:46:21;30.06;55.99
80290;SHT30;69592;44.804;-0.550;2023-07-09T11:48:48;30.40;55.55
80290;SHT30;69592;44.804;-0.550;2023-07-09T11:51:21;30.88;55.45
80290;SHT30;69592;44.804;-0.550;2023-07-09T11:53:51;30.81;55.21
80290;SHT30;69592;44.804;-0.550;2023-07-09T11:56:22;30.36;54.60
80290;SHT30;69592;44.804;-0.550;2023-07-09T12:01:18;30.13;55.11
80290;SHT30;69592;44.804;-0.550;2023-07-09T12:03:45;30.02;54.93
80290;SHT30;69592;44.804;-0.550;2023-07-09T12:08:49;30.97;53.32
80290;SHT30;69592;44.804;-0.550;2023-07-09T12:11:31;31.24;53.01
80290;SHT30;69592;44.804;-0.550;2023-07-09T12:14:21;30.92;53.43
80290;SHT30;69592;44.804;-0.550;2023-07-09T12:16:49;30.50;53.78
80290;SHT30;69592;44.804;-0.550;2023-07-09T12:19:23;30.40;53.49
80290;SHT30;69592;44.804;-0.550;2023-07-09T12:21:56;30.56;53.61
80290;SHT30;69592;44.804;-0.550;2023-07-09T12:24:26;30.73;54.55
80290;SHT30;69592;44.804;-0.550;2023-07-09T12:26:53;30.71;53.56
80290;SHT30;69592;44.804;-0.550;2023-07-09T12:29:20;30.81;53.00
80290;SHT30;69592;44.804;-0.550;2023-07-09T12:31:48;30.73;53.24
80290;SHT30;69592;44.804;-0.550;2023-07-09T12:34:14;30.86;53.06
80290;SHT30;69592;44.804;-0.550;2023-07-09T12:36:53;30.61;54.45
80290;SHT30;69592;44.804;-0.550;2023-07-09T12:39:24;30.32;53.09
80290;SHT30;69592;44.804;-0.550;2023-07-09T12:41:54;30.74;52.92
80290;SHT30;69592;44.804;-0.550;2023-07-09T12:44:21;31.14;51.35
80290;SHT30;69592;44.804;-0.550;2023-07-09T12:46:50;31.11;52.60
80290;SHT30;69592;44.804;-0.550;2023-07-09T12:49:29;30.59;52.90
80290;SHT30;69592;44.804;-0.550;2023-07-09T12:52:01;30.50;53.12
80290;SHT30;69592;44.804;-0.550;2023-07-09T12:54:29;30.43;54.07
80290;SHT30;69592;44.804;-0.550;2023-07-09T12:56:55;30.43;53.43
80290;SHT30;69592;44.804;-0.550;2023-07-09T12:59:24;30.40;53.32
80290;SHT30;69592;44.804;-0.550;2023-07-09T13:04:38;31.63;53.54
80290;SHT30;69592;44.804;-0.550;2023-07-09T13:07:04;31.73;53.14
80290;SHT30;69592;44.804;-0.550;2023-07-09T13:09:30;32.33;51.80
80290;SHT30;69592;44.804;-0.550;2023-07-09T13:11:57;32.26;51.51
80290;SHT30;69592;44.804;-0.550;2023-07-09T13:14:32;32.74;51.24
80290;SHT30;69592;44.804;-0.550;2023-07-09T13:17:05;32.21;50.43
80290;SHT30;69592;44.804;-0.550;2023-07-09T13:19:31;32.23;49.97
80290;SHT30;69592;44.804;-0.550;2023-07-09T13:21:57;32.49;49.51
80290;SHT30;69592;44.804;-0.550;2023-07-09T13:24:24;32.71;49.98
80290;SHT30;69592;44.804;-0.550;2023-07-09T13:26:50;33.05;49.88
80290;SHT30;69592;44.804;-0.550;2023-07-09T13:29:17;32.97;47.73
80290;SHT30;69592;44.804;-0.550;2023-07-09T13:31:44;32.53;49.07
80290;SHT30;69592;44.804;-0.550;2023-07-09T13:34:23;32.31;49.32
80290;SHT30;69592;44.804;-0.550;2023-07-09T13:36:50;32.67;49.38
80290;SHT30;69592;44.804;-0.550;2023-07-09T13:39:16;32.27;50.23
80290;SHT30;69592;44.804;-0.550;2023-07-09T13:41:46;32.40;50.14
80290;SHT30;69592;44.804;-0.550;2023-07-09T13:44:16;32.08;49.47
80290;SHT30;69592;44.804;-0.550;2023-07-09T13:46:42;32.00;49.84
80290;SHT30;69592;44.804;-0.550;2023-07-09T13:49:13;32.17;50.79
80290;SHT30;69592;44.804;-0.550;2023-07-09T13:51:40;32.29;50.09
80290;SHT30;69592;44.804;-0.550;2023-07-09T13:54:32;32.60;48.58
80290;SHT30;69592;44.804;-0.550;2023-07-09T13:57:02;33.00;49.70
80290;SHT30;69592;44.804;-0.550;2023-07-09T13:59:29;33.34;47.76
80290;SHT30;69592;44.804;-0.550;2023-07-09T14:01:55;33.44;47.90
80290;SHT30;69592;44.804;-0.550;2023-07-09T14:04:21;33.35;47.20
80290;SHT30;69592;44.804;-0.550;2023-07-09T14:06:47;33.11;47.85
80290;SHT30;69592;44.804;-0.550;2023-07-09T14:09:13;33.38;47.58
80290;SHT30;69592;44.804;-0.550;2023-07-09T14:11:44;33.63;48.19
80290;SHT30;69592;44.804;-0.550;2023-07-09T14:14:25;33.99;47.74
80290;SHT30;69592;44.804;-0.550;2023-07-09T14:16:55;34.48;45.90
80290;SHT30;69592;44.804;-0.550;2023-07-09T14:19:22;33.65;47.01
80290;SHT30;69592;44.804;-0.550;2023-07-09T14:21:49;33.32;48.57
80290;SHT30;69592;44.804;-0.550;2023-07-09T14:24:19;33.85;46.29
80290;SHT30;69592;44.804;-0.550;2023-07-09T14:26:47;33.68;46.43
80290;SHT30;69592;44.804;-0.550;2023-07-09T14:29:13;33.22;48.29
80290;SHT30;69592;44.804;-0.550;2023-07-09T14:31:40;33.48;47.32
80290;SHT30;69592;44.804;-0.550;2023-07-09T14:34:28;33.59;47.87
80290;SHT30;69592;44.804;-0.550;2023-07-09T14:36:56;33.69;47.23
80290;SHT30;69592;44.804;-0.550;2023-07-09T14:39:22;33.62;48.22
80290;SHT30;69592;44.804;-0.550;2023-07-09T14:41:48;33.62;48.38
80290;SHT30;69592;44.804;-0.550;2023-07-09T14:44:31;33.51;48.27
80290;SHT30;69592;44.804;-0.550;2023-07-09T14:46:58;33.12;47.90
80290;SHT30;69592;44.804;-0.550;2023-07-09T14:49:25;33.77;47.21
80290;SHT30;69592;44.804;-0.550;2023-07-09T14:51:51;33.49;47.79
80290;SHT30;69592;44.804;-0.550;2023-07-09T14:56:45;32.21;49.88
80290;SHT30;69592;44.804;-0.550;2023-07-09T14:59:10;31.70;51.22
80290;SHT30;69592;44.804;-0.550;2023-07-09T15:01:36;31.35;52.65
80290;SHT30;69592;44.804;-0.550;2023-07-09T15:04:18;31.57;51.59
80290;SHT30;69592;44.804;-0.550;2023-07-09T15:06:49;31.83;50.92
80290;SHT30;69592;44.804;-0.550;2023-07-09T15:09:14;31.99;51.11
80290;SHT30;69592;44.804;-0.550;2023-07-09T15:11:42;32.13;52.90
80290;SHT30;69592;44.804;-0.550;2023-07-09T15:14:11;32.17;51.74
80290;SHT30;69592;44.804;-0.550;2023-07-09T15:16:37;32.47;50.49
80290;SHT30;69592;44.804;-0.550;2023-07-09T15:19:16;33.05;50.02
80290;SHT30;69592;44.804;-0.550;2023-07-09T15:21:42;33.32;48.16
80290;SHT30;69592;44.804;-0.550;2023-07-09T15:24:19;33.18;48.76
80290;SHT30;69592;44.804;-0.550;2023-07-09T15:26:52;33.18;48.44
80290;SHT30;69592;44.804;-0.550;2023-07-09T15:29:18;33.04;47.41
80290;SHT30;69592;44.804;-0.550;2023-07-09T15:31:44;33.36;47.05
80290;SHT30;69592;44.804;-0.550;2023-07-09T15:34:10;33.58;46.84
80290;SHT30;69592;44.804;-0.550;2023-07-09T15:36:36;32.85;47.02
80290;SHT30;69592;44.804;-0.550;2023-07-09T15:39:02;32.92;47.86
80290;SHT30;69592;44.804;-0.550;2023-07-09T15:41:28;33.25;47.07
80290;SHT30;69592;44.804;-0.550;2023-07-09T15:43:53;33.00;46.67
80290;SHT30;69592;44.804;-0.550;2023-07-09T15:46:21;32.60;47.10
80290;SHT30;69592;44.804;-0.550;2023-07-09T15:48:48;33.11;46.62
80290;SHT30;69592;44.804;-0.550;2023-07-09T15:51:15;33.36;45.71
80290;SHT30;69592;44.804;-0.550;2023-07-09T15:53:40;33.62;45.94
80290;SHT30;69592;44.804;-0.550;2023-07-09T15:56:18;32.88;46.18
80290;SHT30;69592;44.804;-0.550;2023-07-09T15:58:46;32.71;46.46
80290;SHT30;69592;44.804;-0.550;2023-07-09T16:01:15;32.59;46.91
80290;SHT30;69592;44.804;-0.550;2023-07-09T16:03:47;31.72;48.26
80290;SHT30;69592;44.804;-0.550;2023-07-09T16:06:13;31.96;48.39
80290;SHT30;69592;44.804;-0.550;2023-07-09T16:08:39;31.69;48.92